Dai2kousei — JD2542 — position and weather

sailwx.info

Track history (hours):
 
Tides and Currents Weather Stations Pressure Air Temp Water Temp Dewpoint Dewpoint Depression Visibility Wind Speed Wind Dir Waves Ship Positions

Dai2kousei

Last reported at 2017-Jan-24 10:32 UTC. Time now 2017-Jan-24 11:07 UTC.
Position N 35°31' E 139°55'.

Length 77 m; draft 4.9 m.

MMSI: 431000467.

Date/timePositionNaut miles runAvg speedWind from/ knotsBaromVisibWave heightAir tempDewpointWater temp
2017-Jan-24 10:32N 35°31' E 139°55'9 9.0
2017-Jan-24 09:33N 35°28' E 139°45'1 1.0
2017-Jan-24 08:33N 35°29' E 139°44'0 0.0
2017-Jan-24 07:33N 35°29' E 139°44'0 0.0
2017-Jan-24 06:33N 35°29' E 139°44'0 0.0
2017-Jan-24 05:33N 35°29' E 139°44'0 0.0
2017-Jan-24 04:33N 35°29' E 139°44'0 0.0
2017-Jan-24 03:33N 35°29' E 139°44'0 0.0
2017-Jan-24 02:33N 35°29' E 139°44'0 0.0
2017-Jan-24 01:33N 35°29' E 139°44'0 0.0
2017-Jan-24 00:33N 35°29' E 139°44'0 0.0
2017-Jan-23 23:33N 35°29' E 139°44'0 0.0
2017-Jan-23 22:33N 35°29' E 139°44'0 0.0
2017-Jan-23 21:33N 35°29' E 139°44'0 0.0
2017-Jan-23 20:33N 35°29' E 139°44'0 0.0
2017-Jan-23 19:33N 35°29' E 139°44'0 0.0
2017-Jan-23 18:33N 35°29' E 139°44'0 0.0
2017-Jan-23 17:33N 35°29' E 139°44'0 0.0
2017-Jan-23 16:33N 35°29' E 139°44'0 0.0
2017-Jan-23 15:33N 35°29' E 139°44'9 8.9
2017-Jan-23 14:33N 35°20' E 139°45'1210.3
2017-Jan-23 13:23N 35°08' E 139°46'  
2017-Jan-14 14:24N 35°08' E 139°43'910.6
2017-Jan-14 13:33N 35°17' E 139°45'1010.4
2017-Jan-14 12:33N 35°27' E 139°45'2 2.3
2017-Jan-14 11:33N 35°29' E 139°44'0 0.0
2017-Jan-14 10:33N 35°29' E 139°44'  
Track history (hours):
 
Tides and Currents Weather Stations Pressure Air Temp Water Temp Dewpoint Dewpoint Depression Visibility Wind Speed Wind Dir Waves Ship Positions

Dai2kousei

Last reported at 2017-Jan-24 10:32 UTC. Time now 2017-Jan-24 11:07 UTC.
Position N 35°31' E 139°55'.

Length 77 m; draft 4.9 m.

MMSI: 431000467.

Date/timePositionNaut miles runAvg speedWind from/ knotsBaromVisibWave heightAir tempDewpointWater temp
2017-Jan-24 10:32N 35°31' E 139°55'9 9.0
2017-Jan-24 09:33N 35°28' E 139°45'1 1.0
2017-Jan-24 08:33N 35°29' E 139°44'0 0.0
2017-Jan-24 07:33N 35°29' E 139°44'0 0.0
2017-Jan-24 06:33N 35°29' E 139°44'0 0.0
2017-Jan-24 05:33N 35°29' E 139°44'0 0.0
2017-Jan-24 04:33N 35°29' E 139°44'0 0.0
2017-Jan-24 03:33N 35°29' E 139°44'0 0.0
2017-Jan-24 02:33N 35°29' E 139°44'0 0.0
2017-Jan-24 01:33N 35°29' E 139°44'0 0.0
2017-Jan-24 00:33N 35°29' E 139°44'0 0.0
2017-Jan-23 23:33N 35°29' E 139°44'0 0.0
2017-Jan-23 22:33N 35°29' E 139°44'0 0.0
2017-Jan-23 21:33N 35°29' E 139°44'0 0.0
2017-Jan-23 20:33N 35°29' E 139°44'0 0.0
2017-Jan-23 19:33N 35°29' E 139°44'0 0.0
2017-Jan-23 18:33N 35°29' E 139°44'0 0.0
2017-Jan-23 17:33N 35°29' E 139°44'0 0.0
2017-Jan-23 16:33N 35°29' E 139°44'0 0.0
2017-Jan-23 15:33N 35°29' E 139°44'9 8.9
2017-Jan-23 14:33N 35°20' E 139°45'1210.3
2017-Jan-23 13:23N 35°08' E 139°46'  
2017-Jan-14 14:24N 35°08' E 139°43'910.6
2017-Jan-14 13:33N 35°17' E 139°45'1010.4
2017-Jan-14 12:33N 35°27' E 139°45'2 2.3
2017-Jan-14 11:33N 35°29' E 139°44'0 0.0
2017-Jan-14 10:33N 35°29' E 139°44'  

Dump ship's entire track history